createdAt,value
2017-12-23T00:00:03.444Z,99.26
2017-12-23T00:01:03.848Z,99.68
2017-12-23T00:02:04.269Z,99.73
2017-12-23T00:03:04.693Z,98.87
2017-12-23T00:04:05.126Z,99.16
2017-12-23T00:05:05.540Z,99.16
2017-12-23T00:06:05.957Z,99.35
2017-12-23T00:07:06.383Z,99.16
2017-12-23T00:08:06.806Z,99.16
2017-12-23T00:09:07.225Z,98.92
2017-12-23T00:10:07.646Z,99.21
2017-12-23T00:11:08.072Z,98.92
2017-12-23T00:12:08.494Z,99.40
2017-12-23T00:13:08.917Z,99.35
2017-12-23T00:14:09.332Z,99.77
2017-12-23T00:15:09.760Z,99.40
2017-12-23T00:16:10.179Z,99.30
2017-12-23T00:17:10.577Z,99.73
2017-12-23T00:18:11.005Z,99.77
2017-12-23T00:19:11.423Z,99.97
2017-12-23T00:20:11.856Z,99.21
2017-12-23T00:21:12.269Z,99.73
2017-12-23T00:22:12.692Z,99.16
2017-12-23T00:23:13.117Z,99.16
2017-12-23T00:24:13.537Z,99.06
2017-12-23T00:25:13.957Z,99.16
2017-12-23T00:26:14.378Z,98.97
2017-12-23T00:27:14.807Z,99.06
2017-12-23T00:28:15.226Z,99.16
2017-12-23T00:29:15.651Z,99.11
2017-12-23T00:30:16.100Z,99.26
2017-12-23T00:31:16.493Z,99.30
2017-12-23T00:32:16.943Z,99.97
2017-12-23T00:33:17.349Z,99.82
2017-12-23T00:34:17.760Z,99.68
2017-12-23T00:35:18.183Z,99.40
2017-12-23T00:36:18.621Z,98.87
2017-12-23T00:37:19.022Z,99.16
2017-12-23T00:38:19.454Z,99.26
2017-12-23T00:39:19.891Z,99.26
2017-12-23T00:40:20.301Z,99.26
2017-12-23T00:41:20.718Z,99.16
2017-12-23T00:42:21.142Z,99.26
2017-12-23T00:43:21.589Z,99.16
2017-12-23T00:44:21.984Z,99.35
2017-12-23T00:45:22.418Z,99.58
2017-12-23T00:46:22.836Z,99.87
2017-12-23T00:47:23.255Z,99.68
2017-12-23T00:48:23.691Z,99.58
2017-12-23T00:49:24.096Z,98.87
2017-12-23T00:50:24.516Z,99.06
2017-12-23T00:51:24.946Z,98.97
2017-12-23T00:52:25.367Z,99.73
2017-12-23T00:53:25.791Z,99.21
2017-12-23T00:54:26.213Z,99.49
2017-12-23T00:55:26.633Z,98.97
2017-12-23T00:56:27.055Z,99.35
2017-12-23T00:57:27.482Z,99.06
2017-12-23T00:58:27.912Z,99.49
2017-12-23T00:59:28.320Z,99.58
2017-12-23T01:00:28.748Z,99.77
2017-12-23T01:01:29.165Z,99.97
2017-12-23T01:02:29.590Z,99.77
2017-12-23T01:03:30.013Z,99.11
2017-12-23T01:04:30.437Z,99.68
2017-12-23T01:05:30.867Z,99.54
2017-12-23T01:06:31.281Z,99.97
2017-12-23T01:07:31.703Z,99.58
2017-12-23T01:08:32.130Z,99.77
2017-12-23T01:09:32.548Z,99.99
2017-12-23T01:10:33.009Z,99.77
2017-12-23T01:11:33.392Z,99.58
2017-12-23T01:12:33.821Z,99.40
2017-12-23T01:13:34.246Z,99.73
2017-12-23T01:14:34.676Z,99.77
2017-12-23T01:15:35.083Z,99.68
2017-12-23T01:16:35.517Z,99.58
2017-12-23T01:17:35.925Z,99.97
2017-12-23T01:18:36.346Z,99.97
2017-12-23T01:19:36.776Z,99.91
2017-12-23T01:20:37.197Z,99.99
2017-12-23T01:21:37.617Z,99.82
2017-12-23T01:22:38.041Z,99.97
2017-12-23T01:23:38.467Z,99.99
2017-12-23T01:24:38.903Z,99.97
2017-12-23T01:25:39.306Z,99.73
2017-12-23T01:26:39.728Z,99.99
2017-12-23T01:27:40.156Z,99.99
2017-12-23T01:28:40.573Z,99.99
2017-12-23T01:29:40.997Z,99.73
2017-12-23T01:30:41.418Z,99.73
2017-12-23T01:31:41.848Z,99.91
2017-12-23T01:32:42.272Z,99.77
2017-12-23T01:33:42.690Z,99.97
2017-12-23T01:34:43.110Z,99.68
2017-12-23T01:35:43.531Z,99.87
2017-12-23T01:36:43.957Z,99.99
2017-12-23T01:37:44.375Z,99.99
2017-12-23T01:38:44.799Z,99.54
2017-12-23T01:39:45.227Z,99.99
2017-12-23T01:40:45.645Z,99.99
2017-12-23T01:41:46.066Z,99.99
2017-12-23T01:42:46.490Z,99.99
2017-12-23T01:43:46.909Z,99.99
2017-12-23T01:44:47.339Z,99.99
2017-12-23T01:45:47.756Z,99.99
2017-12-23T01:46:48.177Z,99.99
2017-12-23T01:47:48.674Z,99.99
2017-12-23T01:48:49.021Z,99.99
2017-12-23T01:49:49.440Z,99.99
2017-12-23T01:50:49.868Z,99.99
2017-12-23T01:51:50.290Z,99.99
2017-12-23T01:52:50.712Z,99.99
2017-12-23T01:53:51.131Z,99.99
2017-12-23T01:54:51.557Z,99.99
2017-12-23T01:55:51.973Z,99.99
2017-12-23T01:56:52.398Z,99.99
2017-12-23T01:57:52.824Z,99.99
2017-12-23T01:58:53.245Z,99.99
2017-12-23T01:59:53.663Z,99.99
2017-12-23T02:00:54.092Z,99.99
2017-12-23T02:01:54.508Z,99.99
2017-12-23T02:02:54.929Z,99.99
2017-12-23T02:03:55.432Z,99.99
2017-12-23T02:04:55.815Z,99.99
2017-12-23T02:05:56.195Z,99.99
2017-12-23T02:06:56.618Z,99.99
2017-12-23T02:07:57.044Z,99.99
2017-12-23T02:08:57.474Z,99.99
2017-12-23T02:09:57.888Z,99.99
2017-12-23T02:10:58.314Z,99.99
2017-12-23T02:11:58.729Z,99.99
2017-12-23T02:12:59.151Z,99.99
2017-12-23T02:13:59.572Z,99.99
2017-12-23T02:14:59.992Z,99.99
2017-12-23T02:16:00.422Z,99.99
2017-12-23T02:17:00.838Z,99.99
2017-12-23T02:18:01.269Z,99.99
2017-12-23T02:19:01.688Z,99.99
2017-12-23T02:20:02.103Z,99.99
2017-12-23T02:21:02.528Z,99.99
2017-12-23T02:22:02.947Z,99.99
2017-12-23T02:23:03.366Z,99.99
2017-12-23T02:24:03.795Z,99.99
2017-12-23T02:25:04.216Z,99.99
2017-12-23T02:26:04.644Z,99.99
2017-12-23T02:27:05.058Z,99.99
2017-12-23T02:28:05.478Z,99.99
2017-12-23T02:29:05.901Z,99.99
2017-12-23T02:30:06.326Z,99.99
2017-12-23T02:31:06.742Z,99.99
2017-12-23T02:32:07.166Z,99.99
2017-12-23T02:33:07.591Z,99.99
2017-12-23T02:34:08.028Z,99.99
2017-12-23T02:35:08.437Z,99.99
2017-12-23T02:36:08.855Z,99.99
2017-12-23T02:37:09.276Z,99.99
2017-12-23T02:38:09.700Z,99.99
2017-12-23T02:39:10.125Z,99.99
2017-12-23T02:40:10.565Z,99.99
2017-12-23T02:41:10.966Z,99.99
2017-12-23T02:42:11.388Z,99.99
2017-12-23T02:43:11.854Z,99.99
2017-12-23T02:44:12.242Z,99.99
2017-12-23T02:45:12.659Z,99.99
2017-12-23T02:46:13.149Z,99.99
2017-12-23T02:47:13.503Z,99.99
2017-12-23T02:48:13.919Z,99.99
2017-12-23T02:49:14.340Z,99.99
2017-12-23T02:50:14.765Z,99.99
2017-12-23T02:51:15.182Z,99.99
2017-12-23T02:52:15.611Z,99.99
2017-12-23T02:53:16.028Z,99.99
2017-12-23T02:54:16.447Z,99.99
2017-12-23T02:55:16.871Z,99.99
2017-12-23T02:56:17.292Z,99.99
2017-12-23T02:57:17.722Z,99.99
2017-12-23T02:58:18.138Z,99.99
2017-12-23T02:59:18.558Z,99.99
2017-12-23T03:00:18.981Z,99.99
2017-12-23T03:01:19.411Z,99.99
2017-12-23T03:02:19.828Z,99.99
2017-12-23T03:03:20.246Z,99.99
2017-12-23T03:04:20.671Z,99.99
2017-12-23T03:05:21.093Z,99.99
2017-12-23T03:06:21.516Z,99.99
2017-12-23T03:07:21.933Z,99.99
2017-12-23T03:08:22.355Z,99.99
2017-12-23T03:09:22.784Z,99.99
2017-12-23T03:10:23.201Z,99.99
2017-12-23T03:11:23.625Z,99.99
2017-12-23T03:12:24.055Z,99.99
2017-12-23T03:13:24.469Z,99.99
2017-12-23T03:14:24.889Z,99.99
2017-12-23T03:15:25.326Z,99.99
2017-12-23T03:16:25.730Z,99.99
2017-12-23T03:17:26.156Z,99.99
2017-12-23T03:18:26.574Z,99.99
2017-12-23T03:19:26.996Z,99.99
2017-12-23T03:20:27.418Z,99.99
2017-12-23T03:21:27.837Z,99.99
2017-12-23T03:22:28.264Z,99.99
2017-12-23T03:23:28.685Z,99.99
2017-12-23T03:24:29.113Z,99.99
2017-12-23T03:25:29.532Z,99.99
2017-12-23T03:26:29.950Z,99.99
2017-12-23T03:27:30.372Z,99.99
2017-12-23T03:28:30.793Z,99.99
2017-12-23T03:29:31.214Z,99.99
2017-12-23T03:30:31.640Z,99.99
2017-12-23T03:31:32.062Z,99.99
2017-12-23T03:32:32.480Z,99.99
2017-12-23T03:33:32.935Z,99.99
2017-12-23T03:34:33.325Z,99.99
2017-12-23T03:35:33.743Z,99.99
2017-12-23T03:36:34.169Z,99.99
2017-12-23T03:37:34.608Z,99.99
2017-12-23T03:38:35.008Z,99.99
2017-12-23T03:39:35.429Z,99.99
2017-12-23T03:40:35.861Z,99.99
2017-12-23T03:41:36.273Z,99.99
2017-12-23T03:42:36.697Z,99.99
2017-12-23T03:43:37.115Z,99.99
2017-12-23T03:44:37.542Z,99.99
2017-12-23T03:45:37.958Z,99.99
2017-12-23T03:46:38.377Z,99.99
2017-12-23T03:47:38.809Z,99.99
2017-12-23T03:48:39.223Z,99.99
2017-12-23T03:49:39.645Z,99.99
2017-12-23T03:50:40.062Z,99.99
2017-12-23T03:51:40.518Z,99.99
2017-12-23T03:52:40.915Z,99.99
2017-12-23T03:53:41.328Z,99.99
2017-12-23T03:54:41.747Z,99.99
2017-12-23T03:55:42.172Z,99.99
2017-12-23T03:56:42.594Z,99.99
2017-12-23T03:57:43.011Z,99.99
2017-12-23T03:58:43.434Z,99.99
2017-12-23T03:59:43.858Z,99.99
2017-12-23T04:00:44.278Z,99.99
2017-12-23T04:01:44.698Z,99.99
2017-12-23T04:02:45.123Z,99.99
2017-12-23T04:03:45.547Z,99.99
2017-12-23T04:04:45.970Z,99.99
2017-12-23T04:05:46.382Z,99.99
2017-12-23T04:06:46.806Z,99.99
2017-12-23T04:07:47.227Z,99.99
2017-12-23T04:08:47.649Z,99.99
2017-12-23T04:09:48.069Z,99.99
2017-12-23T04:10:48.492Z,99.99
2017-12-23T04:11:48.910Z,99.99
2017-12-23T04:12:49.354Z,99.99
2017-12-23T04:13:49.751Z,99.99
2017-12-23T04:14:50.177Z,99.99
2017-12-23T04:15:50.604Z,99.99
2017-12-23T04:16:51.020Z,99.99
2017-12-23T04:17:51.451Z,99.99
2017-12-23T04:18:51.912Z,99.99
2017-12-23T04:19:52.285Z,99.99
2017-12-23T04:20:52.704Z,99.99
2017-12-23T04:21:53.126Z,99.99
2017-12-23T04:22:53.543Z,99.99
2017-12-23T04:23:53.973Z,99.99
2017-12-23T04:24:54.389Z,99.99
2017-12-23T04:25:54.812Z,99.99
2017-12-23T04:26:55.227Z,99.99
2017-12-23T04:27:55.653Z,99.99
2017-12-23T04:28:56.072Z,99.99
2017-12-23T04:29:56.494Z,99.99
2017-12-23T04:30:56.915Z,99.99
2017-12-23T04:31:57.341Z,99.99
2017-12-23T04:32:57.762Z,99.99
2017-12-23T04:33:58.187Z,99.99
2017-12-23T04:34:58.604Z,99.99
2017-12-23T04:35:59.031Z,99.99
2017-12-23T04:36:59.445Z,99.99
2017-12-23T04:37:59.867Z,99.99
2017-12-23T04:39:00.290Z,99.99
2017-12-23T04:40:00.713Z,99.99
2017-12-23T04:41:01.136Z,99.99
2017-12-23T04:42:01.555Z,99.99
2017-12-23T04:43:01.976Z,99.99
2017-12-23T04:44:02.397Z,99.99
2017-12-23T04:45:02.818Z,99.99
2017-12-23T04:46:03.245Z,99.99
2017-12-23T04:47:03.656Z,99.99
2017-12-23T04:48:04.080Z,99.99
2017-12-23T04:49:04.509Z,99.99
2017-12-23T04:50:04.921Z,99.99
2017-12-23T04:51:05.349Z,99.99
2017-12-23T04:52:05.761Z,99.99
2017-12-23T04:53:06.185Z,99.99
2017-12-23T04:54:06.603Z,99.99
2017-12-23T04:55:07.024Z,99.99
2017-12-23T04:56:07.455Z,99.99
2017-12-23T04:57:07.869Z,99.99
2017-12-23T04:58:08.300Z,99.99
2017-12-23T04:59:08.717Z,99.99
2017-12-23T05:00:09.169Z,99.99
2017-12-23T05:01:09.554Z,99.99
2017-12-23T05:02:09.979Z,99.99
2017-12-23T05:03:10.400Z,99.99
2017-12-23T05:04:10.835Z,99.99
2017-12-23T05:05:11.247Z,99.99
2017-12-23T05:06:11.664Z,99.99
2017-12-23T05:07:12.079Z,99.99
2017-12-23T05:08:12.512Z,99.99
2017-12-23T05:09:12.927Z,99.99
2017-12-23T05:10:13.352Z,99.99
2017-12-23T05:11:13.856Z,99.99
2017-12-23T05:12:14.185Z,99.99
2017-12-23T05:13:14.607Z,99.99
2017-12-23T05:14:15.033Z,99.99
2017-12-23T05:15:15.451Z,99.99
2017-12-23T05:16:15.873Z,99.99
2017-12-23T05:17:16.309Z,99.99
2017-12-23T05:18:16.723Z,99.99
2017-12-23T05:19:17.141Z,99.99
2017-12-23T05:20:17.561Z,99.99
2017-12-23T05:21:17.980Z,99.99
2017-12-23T05:22:18.403Z,99.99
2017-12-23T05:23:18.820Z,99.99
2017-12-23T05:24:19.243Z,99.99
2017-12-23T05:25:19.669Z,99.99
2017-12-23T05:26:20.085Z,99.99
2017-12-23T05:27:20.507Z,99.99
2017-12-23T05:28:20.926Z,99.99
2017-12-23T05:29:21.345Z,99.99
2017-12-23T05:30:21.768Z,99.99
2017-12-23T05:31:22.201Z,99.99
2017-12-23T05:32:22.612Z,99.99
2017-12-23T05:33:23.034Z,99.99
2017-12-23T05:34:23.451Z,99.99
2017-12-23T05:35:23.872Z,99.99
2017-12-23T05:36:24.296Z,99.99
2017-12-23T05:37:24.714Z,99.99
2017-12-23T05:38:25.145Z,99.99
2017-12-23T05:39:25.625Z,99.99
2017-12-23T05:40:25.975Z,99.99
2017-12-23T05:41:26.406Z,99.99
2017-12-23T05:42:26.822Z,99.99
2017-12-23T05:43:27.240Z,99.99
2017-12-23T05:44:27.663Z,99.99
2017-12-23T05:45:28.087Z,99.99
2017-12-23T05:46:28.512Z,99.99
2017-12-23T05:47:28.969Z,99.99
2017-12-23T05:48:29.350Z,99.99
2017-12-23T05:49:29.771Z,99.99
2017-12-23T05:50:30.197Z,99.99
2017-12-23T05:51:30.615Z,99.99
2017-12-23T05:52:31.038Z,99.99
2017-12-23T05:53:31.458Z,99.99
2017-12-23T05:54:31.876Z,99.99
2017-12-23T05:55:32.296Z,99.99
2017-12-23T05:56:32.722Z,99.99
2017-12-23T05:57:33.139Z,99.99
2017-12-23T05:58:33.572Z,99.99
2017-12-23T05:59:33.990Z,99.99
2017-12-23T06:00:34.409Z,99.99
2017-12-23T06:01:34.829Z,99.99
2017-12-23T06:02:35.255Z,99.99
2017-12-23T06:03:35.671Z,99.99
2017-12-23T06:04:36.096Z,99.99
2017-12-23T06:05:36.512Z,99.99
2017-12-23T06:06:36.934Z,99.99
2017-12-23T06:07:37.350Z,99.99
2017-12-23T06:08:37.780Z,99.99
2017-12-23T06:09:38.196Z,99.99
2017-12-23T06:10:38.623Z,99.99
2017-12-23T06:11:39.042Z,99.99
2017-12-23T06:12:39.459Z,99.99
2017-12-23T06:13:39.890Z,99.99
2017-12-23T06:14:40.307Z,99.99
2017-12-23T06:15:40.722Z,99.99
2017-12-23T06:16:41.144Z,99.44
2017-12-23T06:17:41.568Z,99.99
2017-12-23T06:18:41.994Z,99.63
2017-12-23T06:19:42.409Z,98.97
2017-12-23T06:20:42.828Z,99.73
2017-12-23T06:21:43.250Z,99.44
2017-12-23T06:22:43.674Z,99.16
2017-12-23T06:23:44.090Z,99.16
2017-12-23T06:24:44.514Z,98.68
2017-12-23T06:25:44.939Z,98.78
2017-12-23T06:26:45.360Z,98.87
2017-12-23T06:27:45.780Z,98.68
2017-12-23T06:28:46.204Z,99.26
2017-12-23T06:29:46.622Z,99.16
2017-12-23T06:30:47.044Z,99.63
2017-12-23T06:31:47.466Z,98.87
2017-12-23T06:32:47.892Z,99.06
2017-12-23T06:33:48.306Z,98.30
2017-12-23T06:34:48.736Z,98.87
2017-12-23T06:35:49.150Z,98.02
2017-12-23T06:36:49.573Z,98.21
2017-12-23T06:37:49.992Z,97.92
2017-12-23T06:38:50.421Z,97.26
2017-12-23T06:39:50.838Z,96.31
2017-12-23T06:40:51.335Z,96.12
2017-12-23T06:41:51.692Z,96.88
2017-12-23T06:42:52.103Z,96.97
2017-12-23T06:43:52.522Z,97.07
2017-12-23T06:44:52.945Z,97.45
2017-12-23T06:45:53.367Z,97.17
2017-12-23T06:46:53.784Z,96.97
2017-12-23T06:47:54.205Z,96.97
2017-12-23T06:48:54.630Z,96.88
2017-12-23T06:49:55.057Z,96.22
2017-12-23T06:50:55.473Z,96.12
2017-12-23T06:51:55.895Z,95.74
2017-12-23T06:52:56.323Z,94.89
2017-12-23T06:53:56.777Z,95.07
2017-12-23T06:54:57.167Z,95.36
2017-12-23T06:55:57.620Z,95.46
2017-12-23T06:56:58.002Z,95.36
2017-12-23T06:57:58.421Z,94.79
2017-12-23T06:58:58.846Z,94.89
2017-12-23T06:59:59.264Z,94.32
2017-12-23T07:00:59.691Z,94.13
2017-12-23T07:02:00.119Z,93.75
2017-12-23T07:03:00.532Z,92.61
2017-12-23T07:04:00.969Z,92.90
2017-12-23T07:05:01.372Z,92.80
2017-12-23T07:06:01.799Z,92.71
2017-12-23T07:07:02.219Z,92.14
2017-12-23T07:08:02.638Z,92.99
2017-12-23T07:09:03.066Z,93.27
2017-12-23T07:10:03.482Z,93.18
2017-12-23T07:11:03.909Z,92.80
2017-12-23T07:12:04.325Z,92.14
2017-12-23T07:13:04.747Z,92.14
2017-12-23T07:14:05.166Z,92.42
2017-12-23T07:15:05.594Z,92.33
2017-12-23T07:16:06.010Z,92.42
2017-12-23T07:17:06.442Z,92.14
2017-12-23T07:18:06.855Z,90.90
2017-12-23T07:19:07.276Z,89.67
2017-12-23T07:20:07.697Z,88.81
2017-12-23T07:21:08.118Z,88.91
2017-12-23T07:22:08.578Z,88.81
2017-12-23T07:23:08.965Z,88.15
2017-12-23T07:24:09.383Z,87.49
2017-12-23T07:25:09.817Z,87.87
2017-12-23T07:26:10.234Z,88.15
2017-12-23T07:27:10.661Z,88.10
2017-12-23T07:28:11.075Z,88.81
2017-12-23T07:29:11.498Z,89.53
2017-12-23T07:30:11.920Z,90.09
2017-12-23T07:31:12.337Z,90.09
2017-12-23T07:32:12.809Z,89.62
2017-12-23T07:33:13.216Z,88.24
2017-12-23T07:34:13.602Z,88.20
2017-12-23T07:35:14.031Z,88.95
2017-12-23T07:36:14.446Z,88.95
2017-12-23T07:37:14.899Z,88.06
2017-12-23T07:38:15.290Z,87.91
2017-12-23T07:39:15.711Z,88.57
2017-12-23T07:40:16.132Z,89.62
2017-12-23T07:41:16.558Z,88.48
2017-12-23T07:42:16.991Z,88.29
2017-12-23T07:43:17.407Z,88.86
2017-12-23T07:44:17.823Z,89.62
2017-12-23T07:45:18.241Z,90.09
2017-12-23T07:46:18.663Z,89.90
2017-12-23T07:47:19.085Z,90.57
2017-12-23T07:48:19.507Z,89.90
2017-12-23T07:49:19.931Z,89.72
2017-12-23T07:50:20.355Z,90.28
2017-12-23T07:51:20.842Z,90.47
2017-12-23T07:52:21.192Z,90.66
2017-12-23T07:53:21.616Z,90.47
2017-12-23T07:54:22.039Z,90.38
2017-12-23T07:55:22.465Z,91.14
2017-12-23T07:56:22.882Z,90.85
2017-12-23T07:57:23.307Z,90.71
2017-12-23T07:58:23.729Z,90.66
2017-12-23T07:59:24.150Z,90.28
2017-12-23T08:00:24.569Z,90.66
2017-12-23T08:01:24.994Z,90.38
2017-12-23T08:02:25.418Z,91.14
2017-12-23T08:03:25.844Z,91.19
2017-12-23T08:04:26.271Z,91.28
2017-12-23T08:05:26.683Z,91.47
2017-12-23T08:06:27.101Z,92.04
2017-12-23T08:07:27.528Z,92.51
2017-12-23T08:08:27.949Z,92.71
2017-12-23T08:09:28.370Z,92.42
2017-12-23T08:10:28.793Z,92.51
2017-12-23T08:11:29.213Z,92.61
2017-12-23T08:12:29.635Z,92.61
2017-12-23T08:13:30.064Z,92.42
2017-12-23T08:14:30.481Z,92.61
2017-12-23T08:15:30.908Z,92.61
2017-12-23T08:16:31.325Z,92.51
2017-12-23T08:17:31.752Z,92.90
2017-12-23T08:18:32.170Z,92.61
2017-12-23T08:19:32.604Z,92.42
2017-12-23T08:20:33.013Z,92.61
2017-12-23T08:21:33.436Z,92.90
2017-12-23T08:22:33.870Z,92.99
2017-12-23T08:23:34.282Z,92.71
2017-12-23T08:24:34.708Z,92.61
2017-12-23T08:25:35.126Z,92.90
2017-12-23T08:26:35.551Z,92.71
2017-12-23T08:27:35.972Z,93.37
2017-12-23T08:28:36.450Z,93.08
2017-12-23T08:29:44.238Z,93.27
2017-12-23T08:31:31.476Z,92.61
2017-12-23T08:32:31.880Z,92.23
2017-12-23T08:34:26.416Z,92.90
2017-12-23T08:35:26.848Z,92.99
2017-12-23T08:37:21.394Z,92.32
2017-12-23T08:38:21.799Z,92.61
2017-12-23T08:41:56.794Z,91.75
2017-12-23T08:42:57.197Z,92.42
2017-12-23T08:44:51.728Z,92.23
2017-12-23T08:45:52.158Z,92.61
2017-12-23T08:47:46.704Z,92.13
2017-12-23T08:48:47.112Z,92.04
2017-12-23T08:50:41.715Z,92.32
2017-12-23T08:51:42.073Z,92.51
2017-12-23T08:53:52.369Z,92.66
2017-12-23T08:54:52.746Z,93.04
2017-12-23T08:56:47.293Z,92.71
2017-12-23T08:57:47.707Z,92.71
2017-12-23T08:59:42.256Z,91.09
2017-12-23T09:00:42.670Z,91.28
2017-12-23T09:02:37.214Z,91.56
2017-12-23T09:03:37.638Z,91.99
2017-12-23T09:05:33.055Z,91.47
2017-12-23T09:06:33.467Z,90.71
2017-12-23T09:07:33.890Z,90.61
2017-12-23T09:08:34.311Z,90.71
2017-12-23T09:09:34.738Z,90.61
2017-12-23T09:10:35.164Z,89.38
2017-12-23T09:11:35.581Z,89.28
2017-12-23T09:12:36.004Z,89.67
2017-12-23T09:13:36.450Z,89.00
2017-12-23T09:14:36.850Z,89.19
2017-12-23T09:15:37.272Z,88.43
2017-12-23T09:16:37.694Z,88.24
2017-12-23T09:17:38.121Z,87.76
2017-12-23T09:18:38.544Z,88.76
2017-12-23T09:19:38.965Z,88.43
2017-12-23T09:20:39.396Z,89.09
2017-12-23T09:21:39.816Z,88.90
2017-12-23T09:22:40.238Z,89.04
2017-12-23T09:23:40.649Z,89.09
2017-12-23T09:24:41.087Z,89.28
2017-12-23T09:25:41.502Z,89.00
2017-12-23T09:26:41.989Z,88.85
2017-12-23T09:27:42.355Z,89.52
2017-12-23T09:28:42.773Z,89.90
2017-12-23T09:29:43.234Z,90.00
2017-12-23T09:30:43.623Z,91.04
2017-12-23T09:31:44.042Z,90.75
2017-12-23T09:32:44.463Z,90.28
2017-12-23T09:33:44.891Z,90.19
2017-12-23T09:34:45.314Z,90.19
2017-12-23T09:35:45.732Z,88.28
2017-12-23T09:36:46.156Z,87.76
2017-12-23T09:37:46.606Z,87.38
2017-12-23T09:38:47.012Z,88.19
2017-12-23T09:39:47.426Z,88.09
2017-12-23T09:40:47.851Z,88.38
2017-12-23T09:41:48.278Z,89.23
2017-12-23T09:42:48.703Z,89.71
2017-12-23T09:43:49.120Z,89.71
2017-12-23T09:44:49.556Z,88.09
2017-12-23T09:45:49.969Z,88.38
2017-12-23T09:46:50.392Z,87.24
2017-12-23T09:47:50.822Z,86.29
2017-12-23T09:48:51.236Z,86.38
2017-12-23T09:49:51.670Z,87.05
2017-12-23T09:50:52.143Z,86.86
2017-12-23T09:51:52.508Z,87.34
2017-12-23T09:52:52.928Z,88.28
2017-12-23T09:53:53.352Z,87.81
2017-12-23T09:54:53.777Z,88.19
2017-12-23T09:55:54.201Z,88.19
2017-12-23T09:56:54.624Z,87.52
2017-12-23T09:57:55.046Z,86.86
2017-12-23T09:58:55.469Z,86.38
2017-12-23T09:59:55.897Z,86.19
2017-12-23T10:00:56.329Z,86.29
2017-12-23T10:01:56.752Z,85.62
2017-12-23T10:02:57.164Z,85.81
2017-12-23T10:03:57.590Z,85.62
2017-12-23T10:04:58.012Z,85.05
2017-12-23T10:05:58.432Z,84.29
2017-12-23T10:06:58.856Z,83.82
2017-12-23T10:07:59.279Z,83.06
2017-12-23T10:08:59.706Z,83.44
2017-12-23T10:10:00.128Z,84.39
2017-12-23T10:11:00.549Z,83.91
2017-12-23T10:12:00.973Z,84.10
2017-12-23T10:13:01.396Z,84.29
2017-12-23T10:14:01.826Z,83.62
2017-12-23T10:15:02.245Z,82.58
2017-12-23T10:16:02.670Z,81.73
2017-12-23T10:17:03.095Z,81.35
2017-12-23T10:18:03.547Z,80.68
2017-12-23T10:19:03.944Z,79.83
2017-12-23T10:20:04.360Z,79.73
2017-12-23T10:21:04.782Z,80.02
2017-12-23T10:22:05.207Z,80.21
2017-12-23T10:23:05.628Z,80.40
2017-12-23T10:24:06.054Z,80.87
2017-12-23T10:25:06.480Z,81.35
2017-12-23T10:26:06.897Z,81.35
2017-12-23T10:27:07.321Z,81.82
2017-12-23T10:28:07.746Z,82.01
2017-12-23T10:29:08.172Z,81.92
2017-12-23T10:30:08.592Z,82.39
2017-12-23T10:31:09.059Z,82.49
2017-12-23T10:32:09.440Z,81.63
2017-12-23T10:33:09.865Z,82.01
2017-12-23T10:34:10.285Z,82.68
2017-12-23T10:35:10.708Z,81.92
2017-12-23T10:36:11.132Z,82.39
2017-12-23T10:37:11.566Z,82.81
2017-12-23T10:38:12.006Z,84.62
2017-12-23T10:39:12.405Z,84.05
2017-12-23T10:40:12.830Z,84.52
2017-12-23T10:41:13.253Z,84.33
2017-12-23T10:42:13.674Z,84.81
2017-12-23T10:43:14.097Z,85.57
2017-12-23T10:44:14.522Z,85.86
2017-12-23T10:45:14.949Z,85.66
2017-12-23T10:46:15.366Z,86.05
2017-12-23T10:47:15.796Z,85.86
2017-12-23T10:48:16.271Z,85.86
2017-12-23T10:49:16.643Z,85.86
2017-12-23T10:50:17.062Z,86.43
2017-12-23T10:51:17.499Z,86.99
2017-12-23T10:52:17.914Z,86.90
2017-12-23T10:53:18.337Z,87.09
2017-12-23T10:54:18.760Z,87.13
2017-12-23T10:55:19.183Z,88.37
2017-12-23T10:56:19.617Z,89.32
2017-12-23T10:57:20.032Z,89.61
2017-12-23T10:58:20.455Z,90.80
2017-12-23T10:59:20.882Z,89.28
2017-12-23T11:00:21.308Z,89.37
2017-12-23T11:01:21.814Z,88.33
2017-12-23T11:02:22.153Z,89.28
2017-12-23T11:03:22.580Z,88.80
2017-12-23T11:04:23.012Z,88.61
2017-12-23T11:05:23.425Z,88.80
2017-12-23T11:06:23.851Z,88.71
2017-12-23T11:07:24.274Z,89.28
2017-12-23T11:08:24.705Z,89.66
2017-12-23T11:09:25.225Z,90.23
2017-12-23T11:10:25.546Z,90.80
2017-12-23T11:11:26.076Z,90.84
2017-12-23T11:12:26.397Z,91.22
2017-12-23T11:13:26.985Z,90.99
2017-12-23T11:14:27.265Z,91.28
2017-12-23T11:15:27.688Z,91.99
2017-12-23T11:16:28.094Z,92.27
2017-12-23T11:17:28.522Z,92.08
2017-12-23T11:18:29.055Z,92.22
2017-12-23T11:19:29.363Z,91.85
2017-12-23T11:20:29.793Z,92.27
2017-12-23T11:21:30.221Z,92.46
2017-12-23T11:22:30.642Z,92.27
2017-12-23T11:23:31.080Z,92.27
2017-12-23T11:24:31.487Z,92.27
2017-12-23T11:25:31.915Z,92.18
2017-12-23T11:26:32.333Z,92.18
2017-12-23T11:27:32.776Z,92.36
2017-12-23T11:28:33.182Z,92.08
2017-12-23T11:29:33.606Z,92.27
2017-12-23T11:30:34.033Z,92.18
2017-12-23T11:31:34.997Z,92.56
2017-12-23T11:32:34.884Z,92.18
2017-12-23T11:33:35.315Z,92.65
2017-12-23T11:34:35.730Z,92.94
2017-12-23T11:35:36.163Z,93.04
2017-12-23T11:36:36.580Z,92.94
2017-12-23T11:37:37.004Z,92.18
2017-12-23T11:38:37.449Z,91.89
2017-12-23T11:39:37.855Z,91.70
2017-12-23T11:40:38.277Z,92.08
2017-12-23T11:41:38.709Z,91.89
2017-12-23T11:42:39.125Z,92.08
2017-12-23T11:43:39.559Z,92.36
2017-12-23T11:44:39.977Z,91.89
2017-12-23T11:45:40.406Z,92.36
2017-12-23T11:46:40.831Z,92.36
2017-12-23T11:47:41.260Z,92.36
2017-12-23T11:48:41.676Z,92.56
2017-12-23T11:49:42.099Z,92.56
2017-12-23T11:50:42.528Z,92.27
2017-12-23T11:51:42.945Z,92.27
2017-12-23T11:52:43.416Z,91.99
2017-12-23T11:53:43.799Z,91.80
2017-12-23T11:54:44.234Z,92.08
2017-12-23T11:55:44.647Z,91.89
2017-12-23T11:56:45.095Z,91.61
2017-12-23T11:57:45.496Z,90.84
2017-12-23T11:58:45.920Z,91.03
2017-12-23T11:59:46.342Z,90.66
2017-12-23T12:00:46.773Z,90.56
2017-12-23T12:01:47.196Z,90.84
2017-12-23T12:02:47.629Z,90.94
2017-12-23T12:03:48.041Z,91.51
2017-12-23T12:04:48.469Z,91.32
2017-12-23T12:05:48.891Z,91.03
2017-12-23T12:06:49.317Z,91.13
2017-12-23T12:07:49.737Z,89.70
2017-12-23T12:08:50.164Z,89.23
2017-12-23T12:09:50.589Z,89.32
2017-12-23T12:10:51.010Z,89.04
2017-12-23T12:11:51.443Z,89.14
2017-12-23T12:12:51.864Z,89.70
2017-12-23T12:13:52.293Z,88.37
2017-12-23T12:14:52.755Z,88.46
2017-12-23T12:15:53.195Z,88.18
2017-12-23T12:16:53.595Z,88.09
2017-12-23T12:17:54.017Z,87.90
2017-12-23T12:18:54.455Z,87.13
2017-12-23T12:19:54.863Z,86.94
2017-12-23T12:20:55.286Z,86.38
2017-12-23T12:21:55.723Z,86.28
2017-12-23T12:22:56.130Z,84.66
2017-12-23T12:23:56.549Z,84.09
2017-12-23T12:24:56.975Z,85.61
2017-12-23T12:25:57.423Z,85.71
2017-12-23T12:26:57.819Z,86.09
2017-12-23T12:27:58.257Z,86.09
2017-12-23T12:28:58.680Z,85.04
2017-12-23T12:29:59.304Z,84.00
2017-12-23T12:30:59.663Z,85.04
2017-12-23T12:31:59.963Z,85.24
2017-12-23T12:33:00.368Z,85.33
2017-12-23T12:34:00.783Z,83.71
2017-12-23T12:35:01.211Z,82.95
2017-12-23T12:36:01.645Z,81.90
2017-12-23T12:37:02.070Z,81.52
2017-12-23T12:38:02.498Z,81.62
2017-12-23T12:39:02.911Z,82.28
2017-12-23T12:40:03.349Z,82.57
2017-12-23T12:41:03.777Z,82.57
2017-12-23T12:42:04.196Z,83.04
2017-12-23T12:43:04.607Z,81.71
2017-12-23T12:44:05.032Z,80.76
2017-12-23T12:45:05.463Z,80.95
2017-12-23T12:46:05.878Z,81.43
2017-12-23T12:47:06.309Z,80.57
2017-12-23T12:48:06.744Z,80.76
2017-12-23T12:49:07.154Z,81.14
2017-12-23T12:50:07.584Z,81.62
2017-12-23T12:51:08.005Z,82.00
2017-12-23T12:52:08.424Z,82.57
2017-12-23T12:53:08.942Z,82.09
2017-12-23T12:54:09.315Z,80.76
2017-12-23T12:55:09.696Z,80.29
2017-12-23T12:56:10.124Z,80.38
2017-12-23T12:57:10.557Z,80.76
2017-12-23T12:58:11.020Z,80.86
2017-12-23T12:59:11.394Z,81.33
2017-12-23T13:00:11.819Z,81.24
2017-12-23T13:01:12.255Z,80.10
2017-12-23T13:02:12.676Z,79.33
2017-12-23T13:03:13.100Z,78.96
2017-12-23T13:04:13.541Z,79.33
2017-12-23T13:05:13.952Z,79.72
2017-12-23T13:06:14.372Z,79.24
2017-12-23T13:07:14.796Z,79.14
2017-12-23T13:08:15.213Z,79.05
2017-12-23T13:09:15.652Z,78.57
2017-12-23T13:10:16.079Z,78.10